Terminal Aerodrome Forecast
Issued by NWS Pocatello, ID

Home | Current Version | Previous Version | Text Only | Print | Product List | Glossary On
Versions: 1 2 3 4 5 6 7 8 9 10 11 12 13 14
986
FTUS45 KPIH 121720
TAFPIH
TAF
KPIH 121720Z 1218/1318 VRB04KT P6SM FEW110 BKN200
     FM131200 19010KT P6SM BKN120=

USA.gov is the U.S. government's official web portal to all federal, state and local government web resources and services.